Pagrindinis puslapis
METAR-TAF:

METAR-TAF

Oro uostai :

Arvidsjaur, Švedija

platuma: 65-35-25N, ilguma: 019-16-55E, Aukštis: 379 m

Dabartinis oras

Ataskaita buvo paskelbta 16 minutes, ne 12:20 UTC
Ramus vėjas
Temperatūra -3°C
Drėgmė 100%
Slėgis 992 hPa
Matomumas 10 km arba daugiau
Apsiniaukę ne aukštis 400 ft

METAR: ESNX 161220Z 00000KT 9999 OVC004 M03/M03 Q0992

Laikas: 13:36 (12:36 UTC)

Prognozė

Ataskaita buvo paskelbta 1 valandą ir 6 minutes, ne 11:30 UTC
Prognozė galioja nuo 16 metu 12 UTC su 16 metu 21 UTC
Vėjas 3 kt iš Vakarų/Šiaurės Vakarų
Matomumas: 8000 m
Išsisklaidę debesys ne aukštis 600 ft
Su prošvaistėmis ne aukštis 1500 ft
sniegas
Laikinai
nuo 16 metu 12 UTC su 16 metu 21 UTC
Matomumas: 2000 m
Su prošvaistėmis ne aukštis 400 ft

TAF: ESNX 161130Z 1612/1621 30003KT 8000 -SN SCT006 BKN015 TEMPO 1612/1621 2000 BKN004

Orai ataskaitas ir orų prognozės (METAR, TAF).

turimą stotys yra geltonos ir raudonos taškus žemėlapyje.

Perkelti pele per norėdami pamatyti stoties vardą.

Tada spustelėkite, norėdami matyti oro stebėjimo ir prognozės.

Norėdami pakeisti žemėlapį: spustelėkite ant žalios mygtukų su juodo kryžiaus žemyn,; žalią mygtuką su brūkšneliu, jei norite nutolinti; arba žalių rodyklių gretimoms žemėlapius.


METAR-TAF: